Quecreek, Pennsylvania
Current Conditions -  °F | °C
As of 5:37 AM on Friday 24 Oct 2014 (Local Time) from KJST Reporting Station
Haze Haze  
Wind Chill: 36°   Ceiling: 300
Heat Index: 42°   Visibility: 1.7mi
Dew Point: 40°   Wind: 10mph
Humidity: 92%   Direction: 290°WNW
Pressure: 30.04"   Gusts: NA
Location:  40.09°N, 79.08°W
Report Text: KJST 240937Z AUTO 29009KT 1 3/4SM BR OVC003 06/04 A3004 RMK AO2 T00560044
Loading
Personal Weather Stations






























Interactive Weather Map
Tropical Storm Tracking
New forecast layout! Learn more

10-Day Weather Forecast

Advertisements
Track Severe Weather on mobile